createdAt,value
2022-09-20T00:01:14.432Z,16.31
2022-09-20T00:03:42.484Z,16.32
2022-09-20T00:06:09.449Z,16.23
2022-09-20T00:08:35.867Z,16.25
2022-09-20T00:11:02.763Z,16.19
2022-09-20T00:13:29.352Z,16.18
2022-09-20T00:15:55.786Z,16.17
2022-09-20T00:18:22.322Z,16.12
2022-09-20T00:20:49.155Z,16.11
2022-09-20T00:23:15.868Z,16.12
2022-09-20T00:25:42.291Z,16.08
2022-09-20T00:28:08.991Z,16.05
2022-09-20T00:30:35.398Z,16.01
2022-09-20T00:33:02.191Z,16.05
2022-09-20T00:35:29.435Z,16.07
2022-09-20T00:37:55.845Z,16.01
2022-09-20T00:40:22.532Z,15.96
2022-09-20T00:42:49.149Z,15.91
2022-09-20T00:45:28.126Z,15.90
2022-09-20T00:48:06.561Z,15.94
2022-09-20T00:50:34.825Z,15.91
2022-09-20T00:53:03.505Z,15.84
2022-09-20T00:55:29.914Z,15.88
2022-09-20T00:57:56.424Z,15.89
2022-09-20T01:00:23.017Z,15.91
2022-09-20T01:02:51.020Z,15.80
2022-09-20T01:05:17.483Z,15.71
2022-09-20T01:07:44.293Z,15.67
2022-09-20T01:10:10.666Z,15.67
2022-09-20T01:12:37.134Z,15.67
2022-09-20T01:15:04.212Z,15.70
2022-09-20T01:17:31.758Z,15.72
2022-09-20T01:20:10.444Z,15.71
2022-09-20T01:22:41.585Z,15.78
2022-09-20T01:25:23.164Z,15.78
2022-09-20T01:27:50.226Z,15.76
2022-09-20T01:30:17.810Z,15.72
2022-09-20T01:32:53.347Z,15.60
2022-09-20T01:35:21.323Z,15.56
2022-09-20T01:37:55.378Z,15.52
2022-09-20T01:40:27.949Z,15.52
2022-09-20T01:43:14.603Z,15.55
2022-09-20T01:45:42.470Z,15.55
2022-09-20T01:48:27.690Z,15.55
2022-09-20T01:51:14.335Z,15.56
2022-09-20T01:53:59.398Z,15.59
2022-09-20T01:56:45.747Z,15.62
2022-09-20T01:59:30.876Z,15.54
2022-09-20T02:01:57.616Z,15.55
2022-09-20T02:04:27.126Z,15.54
2022-09-20T02:07:20.174Z,15.54
2022-09-20T02:09:46.641Z,15.52
2022-09-20T02:12:22.036Z,15.48
2022-09-20T02:15:08.457Z,15.43
2022-09-20T02:17:53.812Z,15.43
2022-09-20T02:20:30.647Z,15.48
2022-09-20T02:23:00.201Z,15.46
2022-09-20T02:25:41.982Z,15.52
2022-09-20T02:28:27.269Z,15.46
2022-09-20T02:31:03.239Z,15.55
2022-09-20T02:33:47.397Z,15.49
2022-09-20T02:36:14.516Z,15.48
2022-09-20T02:38:54.170Z,15.47
2022-09-20T02:41:39.242Z,15.54
2022-09-20T02:44:08.780Z,15.57
2022-09-20T02:46:35.129Z,15.54
2022-09-20T02:49:07.101Z,15.51
2022-09-20T02:51:41.076Z,15.49
2022-09-20T02:54:26.378Z,15.50
2022-09-20T02:57:00.819Z,15.54
2022-09-20T02:59:29.996Z,15.41
2022-09-20T03:02:00.023Z,15.44
2022-09-20T03:04:35.762Z,15.41
2022-09-20T03:07:11.336Z,15.52
2022-09-20T03:09:43.681Z,15.47
2022-09-20T03:12:13.236Z,15.53
2022-09-20T03:14:45.629Z,15.44
2022-09-20T03:17:21.504Z,15.41
2022-09-20T03:19:56.945Z,15.43
2022-09-20T03:22:37.785Z,15.29
2022-09-20T03:25:13.541Z,15.37
2022-09-20T03:27:42.094Z,15.34
2022-09-20T03:30:16.206Z,15.36
2022-09-20T03:32:48.728Z,15.42
2022-09-20T03:35:21.342Z,15.41
2022-09-20T03:38:03.140Z,15.44
2022-09-20T03:40:42.815Z,15.35
2022-09-20T03:43:31.119Z,15.29
2022-09-20T03:45:57.909Z,15.34
2022-09-20T03:48:43.320Z,15.29
2022-09-20T03:51:23.629Z,15.23
2022-09-20T03:53:51.131Z,15.18
2022-09-20T03:56:18.835Z,15.16
2022-09-20T03:58:51.400Z,15.15
2022-09-20T04:01:37.932Z,15.12
2022-09-20T04:04:19.409Z,15.16
2022-09-20T04:07:04.909Z,15.18
2022-09-20T04:09:47.673Z,15.15
2022-09-20T04:12:17.331Z,15.12
2022-09-20T04:15:04.458Z,15.15
2022-09-20T04:17:46.339Z,15.13
2022-09-20T04:20:20.570Z,15.09
2022-09-20T04:22:47.678Z,15.08
2022-09-20T04:25:24.154Z,15.09
2022-09-20T04:27:58.640Z,15.05
2022-09-20T04:30:29.593Z,15.03
2022-09-20T04:33:04.160Z,15.06
2022-09-20T04:36:08.352Z,15.07
2022-09-20T04:38:35.807Z,15.05
2022-09-20T04:41:22.398Z,15.04
2022-09-20T04:44:07.551Z,15.07
2022-09-20T04:46:56.075Z,15.04
2022-09-20T04:49:35.146Z,15.08
2022-09-20T04:52:01.666Z,15.13
2022-09-20T04:54:28.289Z,15.13
2022-09-20T04:57:27.199Z,15.11
2022-09-20T05:00:11.204Z,15.16
2022-09-20T05:02:57.641Z,15.14
2022-09-20T05:05:30.214Z,15.03
2022-09-20T05:08:06.011Z,15.14
2022-09-20T05:10:45.496Z,15.23
2022-09-20T05:13:30.804Z,15.27
2022-09-20T05:16:17.091Z,15.35
2022-09-20T05:18:55.591Z,15.38
2022-09-20T05:21:41.418Z,15.38
2022-09-20T05:24:13.704Z,15.40
2022-09-20T05:26:40.572Z,15.43
2022-09-20T05:29:28.815Z,15.43
2022-09-20T05:32:14.342Z,15.59
2022-09-20T05:35:13.035Z,15.65
2022-09-20T05:37:39.517Z,15.74
2022-09-20T05:40:07.176Z,15.83
2022-09-20T05:42:46.010Z,15.93
2022-09-20T05:45:31.575Z,16.82
2022-09-20T05:48:18.287Z,16.97
2022-09-20T05:50:44.685Z,16.94
2022-09-20T05:53:30.083Z,17.06
2022-09-20T05:56:02.787Z,16.94
2022-09-20T05:58:51.505Z,16.84
2022-09-20T06:01:30.667Z,17.62
2022-09-20T06:04:00.308Z,18.61
2022-09-20T06:06:32.765Z,19.47
2022-09-20T06:09:17.766Z,20.00
2022-09-20T06:11:50.474Z,20.20
2022-09-20T06:14:46.966Z,20.85
2022-09-20T06:17:18.459Z,20.84
2022-09-20T06:20:08.777Z,20.92
2022-09-20T06:22:45.081Z,20.47
2022-09-20T06:25:11.472Z,20.34
2022-09-20T06:27:39.927Z,20.42
2022-09-20T06:30:07.411Z,21.01
2022-09-20T06:32:34.792Z,21.28
2022-09-20T06:35:02.482Z,21.86
2022-09-20T06:37:47.624Z,21.94
2022-09-20T06:40:48.624Z,22.37
2022-09-20T06:43:15.029Z,22.98
2022-09-20T06:45:42.906Z,22.80
2022-09-20T06:48:13.376Z,23.35
2022-09-20T06:50:39.871Z,23.80
2022-09-20T06:53:06.619Z,24.05
2022-09-20T06:55:37.296Z,24.00
2022-09-20T06:58:03.943Z,24.16
2022-09-20T07:00:30.595Z,24.04
2022-09-20T07:02:57.354Z,24.17
2022-09-20T07:05:26.650Z,24.86
2022-09-20T07:07:57.114Z,25.00
2022-09-20T07:10:23.589Z,24.94
2022-09-20T07:12:50.010Z,25.11
2022-09-20T07:15:17.036Z,25.90
2022-09-20T07:17:46.233Z,26.04
2022-09-20T07:20:13.677Z,25.70
2022-09-20T07:22:41.806Z,25.51
2022-09-20T07:25:08.458Z,26.03
2022-09-20T07:27:34.854Z,26.29
2022-09-20T07:30:02.586Z,26.12
2022-09-20T07:32:29.024Z,26.34
2022-09-20T07:34:55.589Z,26.34
2022-09-20T07:37:22.497Z,26.97
2022-09-20T07:39:48.972Z,26.98
2022-09-20T07:42:15.393Z,27.11
2022-09-20T07:44:43.380Z,27.11
2022-09-20T07:47:10.615Z,26.69
2022-09-20T07:49:37.086Z,26.30
2022-09-20T07:52:04.139Z,26.61
2022-09-20T07:54:30.552Z,26.99
2022-09-20T07:56:56.983Z,26.85
2022-09-20T07:59:24.310Z,27.29
2022-09-20T08:01:50.752Z,27.46
2022-09-20T08:04:17.272Z,27.63
2022-09-20T08:06:44.206Z,27.55
2022-09-20T08:09:11.465Z,27.79
2022-09-20T08:11:39.523Z,27.92
2022-09-20T08:14:07.834Z,27.96
2022-09-20T08:16:39.426Z,28.12
2022-09-20T08:19:05.884Z,28.50
2022-09-20T08:21:32.804Z,28.42
2022-09-20T08:23:59.264Z,27.87
2022-09-20T08:26:28.157Z,27.99
2022-09-20T08:28:55.319Z,28.51
2022-09-20T08:31:22.738Z,28.87
2022-09-20T08:33:50.386Z,28.63
2022-09-20T08:36:17.991Z,28.25
2022-09-20T08:41:32.064Z,26.58
2022-09-20T08:44:00.504Z,26.96
2022-09-20T08:46:28.858Z,27.00
2022-09-20T08:48:56.012Z,27.02
2022-09-20T08:51:23.620Z,26.71
2022-09-20T08:53:51.043Z,26.13
2022-09-20T08:56:17.627Z,25.53
2022-09-20T08:58:44.638Z,25.25
2022-09-20T09:01:20.722Z,24.67
2022-09-20T09:03:47.615Z,24.47
2022-09-20T09:06:18.390Z,24.24
2022-09-20T09:08:44.989Z,24.14
2022-09-20T09:11:15.189Z,23.57
2022-09-20T09:13:44.282Z,23.80
2022-09-20T09:16:15.086Z,24.58
2022-09-20T09:18:44.997Z,24.75
2022-09-20T09:21:33.924Z,24.35
2022-09-20T09:24:09.816Z,25.10
2022-09-20T09:26:38.038Z,24.81
2022-09-20T09:29:20.922Z,24.94
2022-09-20T09:31:49.474Z,25.26
2022-09-20T09:34:28.945Z,25.26
2022-09-20T09:36:57.547Z,25.21
2022-09-20T09:39:23.910Z,25.39
2022-09-20T09:41:51.065Z,26.17
2022-09-20T09:44:24.598Z,26.83
2022-09-20T09:46:51.292Z,27.68
2022-09-20T09:49:18.131Z,27.36
2022-09-20T09:52:01.889Z,26.71
2022-09-20T09:54:37.801Z,27.71
2022-09-20T09:57:08.342Z,27.61
2022-09-20T09:59:55.129Z,26.73
2022-09-20T10:02:27.457Z,27.10
2022-09-20T10:05:10.949Z,27.71
2022-09-20T10:07:37.305Z,27.87
2022-09-20T10:10:07.389Z,27.33
2022-09-20T10:12:34.235Z,26.89
2022-09-20T10:15:07.205Z,26.46
2022-09-20T10:17:45.779Z,25.67
2022-09-20T10:20:31.198Z,25.22
2022-09-20T10:23:58.735Z,24.49
2022-09-20T10:26:06.674Z,24.36
2022-09-20T10:28:48.343Z,24.92
2022-09-20T10:31:21.125Z,25.14
2022-09-20T10:33:49.949Z,24.76
2022-09-20T10:36:24.721Z,25.05
2022-09-20T10:38:57.049Z,26.17
2022-09-20T10:41:47.701Z,26.84
2022-09-20T10:44:19.871Z,26.54
2022-09-20T10:47:06.956Z,26.44
2022-09-20T10:49:37.987Z,25.84
2022-09-20T10:52:10.441Z,24.99
2022-09-20T10:54:56.074Z,24.22
2022-09-20T10:57:26.130Z,23.93
2022-09-20T10:59:53.174Z,23.98
2022-09-20T11:02:22.718Z,24.26
2022-09-20T11:05:07.908Z,25.25
2022-09-20T11:07:34.285Z,26.25
2022-09-20T11:10:04.759Z,27.05
2022-09-20T11:12:39.485Z,27.19
2022-09-20T11:15:13.989Z,26.75
2022-09-20T11:17:53.939Z,26.11
2022-09-20T11:20:30.449Z,25.34
2022-09-20T11:23:15.782Z,24.83
2022-09-20T11:25:44.500Z,24.62
2022-09-20T11:34:59.706Z,23.61
2022-09-20T11:37:28.332Z,23.25
2022-09-20T11:39:55.039Z,22.92
2022-09-20T11:42:22.508Z,22.64
2022-09-20T11:44:48.956Z,22.41
2022-09-20T11:47:26.670Z,22.43
2022-09-20T11:50:26.903Z,22.57
2022-09-20T11:53:12.613Z,23.22
2022-09-20T11:55:59.047Z,24.27
2022-09-20T11:58:25.797Z,24.47
2022-09-20T12:00:54.299Z,24.27
2022-09-20T12:03:23.872Z,24.52
2022-09-20T12:05:56.903Z,25.17
2022-09-20T12:08:26.905Z,25.71
2022-09-20T12:10:55.360Z,26.10
2022-09-20T12:13:25.105Z,25.92
2022-09-20T12:15:58.892Z,25.96
2022-09-20T12:18:29.474Z,25.84
2022-09-20T12:20:55.869Z,26.06
2022-09-20T12:23:40.801Z,25.83
2022-09-20T12:26:27.462Z,26.05
2022-09-20T12:28:58.823Z,26.03
2022-09-20T12:31:26.281Z,26.21
2022-09-20T12:34:05.039Z,26.12
2022-09-20T12:36:34.273Z,25.98
2022-09-20T12:39:19.230Z,26.04
2022-09-20T12:41:55.158Z,25.81
2022-09-20T12:44:21.525Z,25.41
2022-09-20T12:46:52.993Z,25.21
2022-09-20T12:49:41.375Z,24.45
2022-09-20T12:52:45.012Z,24.23
2022-09-20T12:55:11.965Z,23.81
2022-09-20T12:57:38.459Z,23.87
2022-09-20T13:00:05.790Z,23.65
2022-09-20T13:02:52.068Z,23.42
2022-09-20T13:05:36.909Z,23.31
2022-09-20T13:08:05.458Z,23.28
2022-09-20T13:10:33.588Z,23.39
2022-09-20T13:13:04.493Z,23.24
2022-09-20T13:15:33.284Z,23.13
2022-09-20T13:18:00.822Z,23.14
2022-09-20T13:20:31.038Z,23.20
2022-09-20T13:23:00.292Z,23.01
2022-09-20T13:25:28.556Z,23.15
2022-09-20T13:28:09.041Z,23.39
2022-09-20T13:30:35.552Z,23.41
2022-09-20T13:33:14.741Z,23.65
2022-09-20T13:39:04.393Z,23.33
2022-09-20T13:41:32.548Z,23.13
2022-09-20T13:43:59.063Z,22.82
2022-09-20T13:46:29.611Z,22.88
2022-09-20T13:49:11.510Z,22.88
2022-09-20T13:51:37.907Z,22.83
2022-09-20T13:54:19.631Z,22.80
2022-09-20T13:56:46.097Z,22.88
2022-09-20T13:59:19.559Z,22.85
2022-09-20T14:01:50.336Z,22.71
2022-09-20T14:04:28.874Z,22.77
2022-09-20T14:06:56.456Z,22.96
2022-09-20T14:09:35.488Z,23.12
2022-09-20T14:12:03.238Z,23.11
2022-09-20T14:14:29.751Z,23.01
2022-09-20T14:16:56.567Z,23.00
2022-09-20T14:19:33.202Z,22.87
2022-09-20T14:22:02.715Z,22.87
2022-09-20T14:24:35.774Z,22.77
2022-09-20T14:27:17.946Z,22.68
2022-09-20T14:29:48.051Z,22.56
2022-09-20T14:32:18.661Z,22.37
2022-09-20T14:34:58.435Z,22.23
2022-09-20T14:37:29.282Z,21.97
2022-09-20T14:40:25.576Z,21.94
2022-09-20T14:42:56.283Z,21.89
2022-09-20T14:45:32.808Z,21.66
2022-09-20T14:47:59.416Z,21.69
2022-09-20T14:50:27.335Z,21.53
2022-09-20T14:53:00.602Z,21.39
2022-09-20T14:58:21.449Z,21.24
2022-09-20T15:00:51.065Z,21.23
2022-09-20T15:03:18.985Z,21.26
2022-09-20T15:05:46.017Z,21.20
2022-09-20T15:08:12.425Z,21.20
2022-09-20T15:10:38.843Z,21.19
2022-09-20T15:13:05.860Z,21.17
2022-09-20T15:15:32.271Z,21.09
2022-09-20T15:18:00.999Z,21.03
2022-09-20T15:20:27.595Z,21.02
2022-09-20T15:22:54.024Z,21.12
2022-09-20T15:25:21.218Z,20.92
2022-09-20T15:27:47.892Z,20.94
2022-09-20T15:30:16.364Z,20.79
2022-09-20T15:32:44.008Z,20.67
2022-09-20T15:35:10.481Z,20.47
2022-09-20T15:37:37.053Z,20.32
2022-09-20T15:40:04.277Z,20.36
2022-09-20T15:42:30.971Z,20.27
2022-09-20T15:44:57.488Z,20.21
2022-09-20T15:47:23.996Z,20.14
2022-09-20T15:49:50.811Z,20.01
2022-09-20T15:52:17.358Z,19.82
2022-09-20T15:54:43.816Z,19.58
2022-09-20T15:57:10.378Z,19.28
2022-09-20T15:59:36.813Z,19.44
2022-09-20T16:02:03.388Z,19.44
2022-09-20T16:04:30.110Z,19.42
2022-09-20T16:06:56.525Z,19.44
2022-09-20T16:09:23.103Z,19.41
2022-09-20T16:11:49.797Z,19.47
2022-09-20T16:14:16.242Z,19.43
2022-09-20T16:16:42.830Z,19.28
2022-09-20T16:19:20.796Z,19.18
2022-09-20T16:21:50.545Z,19.15
2022-09-20T16:24:22.487Z,19.13
2022-09-20T16:26:48.893Z,19.13
2022-09-20T16:29:17.125Z,19.09
2022-09-20T16:31:46.856Z,19.03
2022-09-20T16:34:20.448Z,18.97
2022-09-20T16:36:47.216Z,18.85
2022-09-20T16:39:14.200Z,18.71
2022-09-20T16:41:40.813Z,18.62
2022-09-20T16:44:07.666Z,18.68
2022-09-20T16:46:37.325Z,18.56
2022-09-20T16:49:04.471Z,18.52
2022-09-20T16:51:32.898Z,18.50
2022-09-20T16:54:20.929Z,18.47
2022-09-20T16:56:48.139Z,18.46
2022-09-20T16:59:15.799Z,18.41
2022-09-20T17:01:42.635Z,18.27
2022-09-20T17:04:09.517Z,18.27
2022-09-20T17:06:37.147Z,18.15
2022-09-20T17:09:04.023Z,18.07
2022-09-20T17:11:31.052Z,18.06
2022-09-20T17:13:57.611Z,18.04
2022-09-20T17:16:24.850Z,18.01
2022-09-20T17:18:52.665Z,17.89
2022-09-20T17:21:19.205Z,17.86
2022-09-20T17:23:50.629Z,17.86
2022-09-20T17:26:23.153Z,17.80
2022-09-20T17:28:51.544Z,17.89
2022-09-20T17:31:18.617Z,17.87
2022-09-20T17:33:45.994Z,17.84
2022-09-20T17:36:13.552Z,17.75
2022-09-20T17:38:40.051Z,17.64
2022-09-20T17:41:09.995Z,17.54
2022-09-20T17:43:37.561Z,17.60
2022-09-20T17:46:07.620Z,17.56
2022-09-20T17:48:34.364Z,17.58
2022-09-20T17:51:02.112Z,17.51
2022-09-20T17:53:30.153Z,17.46
2022-09-20T17:55:56.993Z,17.40
2022-09-20T17:58:23.571Z,17.35
2022-09-20T18:00:50.068Z,17.39
2022-09-20T18:03:16.809Z,17.32
2022-09-20T18:05:44.278Z,17.34
2022-09-20T18:08:10.703Z,17.29
2022-09-20T18:10:37.133Z,17.24
2022-09-20T18:13:04.836Z,17.25
2022-09-20T18:15:31.889Z,17.25
2022-09-20T18:18:01.199Z,17.26
2022-09-20T18:20:28.309Z,17.18
2022-09-20T18:22:54.746Z,17.16
2022-09-20T18:25:24.047Z,17.07
2022-09-20T18:27:50.756Z,17.05
2022-09-20T18:30:17.998Z,17.03
2022-09-20T18:32:44.816Z,17.00
2022-09-20T18:35:11.232Z,16.97
2022-09-20T18:37:41.054Z,16.98
2022-09-20T18:40:08.068Z,16.92
2022-09-20T18:42:34.706Z,16.88
2022-09-20T18:45:01.126Z,16.88
2022-09-20T18:47:27.963Z,16.88
2022-09-20T18:49:54.395Z,16.87
2022-09-20T18:52:24.226Z,16.86
2022-09-20T18:54:56.019Z,16.86
2022-09-20T18:57:22.929Z,16.76
2022-09-20T18:59:54.350Z,16.62
2022-09-20T19:02:29.865Z,16.62
2022-09-20T19:05:08.462Z,16.65
2022-09-20T19:07:54.122Z,16.72
2022-09-20T19:10:23.657Z,16.66
2022-09-20T19:12:53.349Z,16.61
2022-09-20T19:15:41.051Z,16.56
2022-09-20T19:18:07.568Z,16.62
2022-09-20T19:20:44.244Z,16.60
2022-09-20T19:23:13.663Z,16.59
2022-09-20T19:25:43.587Z,16.55
2022-09-20T19:28:10.501Z,16.46
2022-09-20T19:30:37.543Z,16.39
2022-09-20T19:33:04.065Z,16.42
2022-09-20T19:35:32.426Z,16.44
2022-09-20T19:38:02.071Z,16.43
2022-09-20T19:40:35.633Z,16.34
2022-09-20T19:43:15.653Z,16.36
2022-09-20T19:46:09.130Z,16.41
2022-09-20T19:48:38.048Z,16.36
2022-09-20T19:51:05.490Z,16.31
2022-09-20T19:53:32.109Z,16.29
2022-09-20T19:56:02.429Z,16.33
2022-09-20T19:58:29.022Z,16.34
2022-09-20T20:00:56.203Z,16.29
2022-09-20T20:03:26.145Z,16.27
2022-09-20T20:05:54.910Z,16.23
2022-09-20T20:08:30.148Z,16.18
2022-09-20T20:10:57.909Z,16.12
2022-09-20T20:14:01.621Z,16.14
2022-09-20T20:16:37.450Z,16.14
2022-09-20T20:19:19.269Z,16.08
2022-09-20T20:21:45.992Z,16.06
2022-09-20T20:24:35.420Z,16.04
2022-09-20T20:27:02.164Z,16.05
2022-09-20T20:29:28.668Z,16.04
2022-09-20T20:31:57.419Z,16.10
2022-09-20T20:34:24.468Z,16.07
2022-09-20T20:36:54.785Z,16.11
2022-09-20T20:39:21.350Z,16.08
2022-09-20T20:41:52.610Z,16.07
2022-09-20T20:44:20.791Z,16.03
2022-09-20T20:46:47.722Z,16.02
2022-09-20T20:49:14.173Z,15.97
2022-09-20T20:51:40.817Z,15.98
2022-09-20T20:54:07.478Z,15.95
2022-09-20T20:56:34.097Z,15.81
2022-09-20T20:59:02.887Z,15.84
2022-09-20T21:01:36.346Z,15.87
2022-09-20T21:04:03.703Z,15.88
2022-09-20T21:06:31.936Z,15.79
2022-09-20T21:08:58.462Z,15.78
2022-09-20T21:11:30.883Z,15.82
2022-09-20T21:13:57.815Z,15.87
2022-09-20T21:16:28.044Z,15.80
2022-09-20T21:18:54.531Z,15.71
2022-09-20T21:21:21.783Z,15.67
2022-09-20T21:23:49.098Z,15.64
2022-09-20T21:26:15.904Z,15.63
2022-09-20T21:28:43.332Z,15.62
2022-09-20T21:31:10.143Z,15.60
2022-09-20T21:33:37.243Z,15.59
2022-09-20T21:36:04.006Z,15.55
2022-09-20T21:38:32.681Z,15.45
2022-09-20T21:41:04.041Z,15.43
2022-09-20T21:43:30.485Z,15.41
2022-09-20T21:45:58.410Z,15.37
2022-09-20T21:48:28.160Z,15.33
2022-09-20T21:51:04.004Z,15.32
2022-09-20T21:53:30.406Z,15.37
2022-09-20T21:55:58.381Z,15.42
2022-09-20T21:58:24.798Z,15.39
2022-09-20T22:01:11.702Z,15.32
2022-09-20T22:03:39.060Z,15.29
2022-09-20T22:06:05.533Z,15.25
2022-09-20T22:08:31.921Z,15.26
2022-09-20T22:10:58.427Z,15.32
2022-09-20T22:13:24.922Z,15.32
2022-09-20T22:15:51.654Z,15.28
2022-09-20T22:18:18.175Z,15.32
2022-09-20T22:20:45.667Z,15.34
2022-09-20T22:23:12.192Z,15.38
2022-09-20T22:25:38.615Z,15.36
2022-09-20T22:28:05.124Z,15.33
2022-09-20T22:30:31.659Z,15.27
2022-09-20T22:32:58.175Z,15.25
2022-09-20T22:35:24.559Z,15.22
2022-09-20T22:37:50.972Z,15.17
2022-09-20T22:40:17.555Z,15.18
2022-09-20T22:42:44.459Z,15.21
2022-09-20T22:45:11.037Z,15.21
2022-09-20T22:47:37.548Z,15.23
2022-09-20T22:50:04.117Z,15.22
2022-09-20T22:52:30.572Z,15.23
2022-09-20T22:54:56.965Z,15.20
2022-09-20T22:57:23.376Z,15.21
2022-09-20T22:59:49.779Z,15.24
2022-09-20T23:02:16.177Z,15.26
2022-09-20T23:04:44.950Z,15.26
2022-09-20T23:07:11.380Z,15.23
2022-09-20T23:09:37.875Z,15.22
2022-09-20T23:12:04.360Z,15.17
2022-09-20T23:14:30.776Z,15.18
2022-09-20T23:16:57.323Z,15.17
2022-09-20T23:19:24.049Z,15.12
2022-09-20T23:21:50.528Z,15.07
2022-09-20T23:24:17.081Z,15.04
2022-09-20T23:26:43.567Z,14.95
2022-09-20T23:29:10.960Z,14.93
2022-09-20T23:31:37.776Z,14.87
2022-09-20T23:34:05.489Z,14.84
2022-09-20T23:36:32.588Z,14.89
2022-09-20T23:38:59.109Z,14.85
2022-09-20T23:41:31.000Z,14.90
2022-09-20T23:43:57.523Z,14.87
2022-09-20T23:46:24.749Z,14.87
2022-09-20T23:48:51.239Z,14.87
2022-09-20T23:51:18.817Z,14.90
2022-09-20T23:53:45.461Z,14.94
2022-09-20T23:56:11.920Z,14.91
2022-09-20T23:58:38.974Z,14.94
